createdAt,value
2023-03-03T01:35:54.000Z,3.31
2023-03-03T02:58:33.242Z,3.11
2023-03-03T04:39:19.033Z,3.19
2023-03-03T04:48:18.843Z,3.44
2023-03-03T05:48:38.319Z,3.58
2023-03-03T08:35:10.080Z,4.00
2023-03-03T08:49:09.905Z,4.38
2023-03-03T09:18:56.382Z,5.19
2023-03-03T10:49:15.479Z,5.40
2023-03-03T11:29:15.052Z,6.86
2023-03-03T12:17:34.591Z,8.88
2023-03-03T12:38:34.393Z,7.86
2023-03-03T13:16:52.982Z,13.11
2023-03-03T13:17:52.718Z,12.97
2023-03-03T13:18:52.712Z,11.81
2023-03-03T13:19:52.706Z,11.33
2023-03-03T13:20:52.725Z,10.50
2023-03-03T13:21:52.679Z,9.84
2023-03-03T13:26:52.627Z,10.01
2023-03-03T13:27:52.606Z,10.40
2023-03-03T13:31:52.698Z,11.14
2023-03-03T13:32:52.563Z,11.04
2023-03-03T13:33:52.539Z,10.81
2023-03-03T13:41:52.457Z,12.83
2023-03-03T13:48:52.379Z,11.52
2023-03-03T13:49:52.363Z,11.65
2023-03-03T13:50:52.353Z,11.52
2023-03-03T13:51:52.345Z,11.98
2023-03-03T13:52:52.356Z,11.54
2023-03-03T13:53:52.324Z,11.03
2023-03-03T13:54:52.312Z,11.07
2023-03-03T13:57:52.281Z,10.49
2023-03-03T13:58:52.274Z,10.30
2023-03-03T13:59:52.255Z,10.01
2023-03-03T14:00:52.296Z,9.97
2023-03-03T14:01:52.231Z,9.58
2023-03-03T14:02:52.219Z,9.63
2023-03-03T14:04:52.202Z,9.80
2023-03-03T14:05:52.394Z,10.15
2023-03-03T14:06:52.198Z,10.37
2023-03-03T14:09:52.148Z,10.31
2023-03-03T14:10:52.135Z,10.17
2023-03-03T14:11:52.130Z,10.37
2023-03-03T14:13:52.105Z,10.10
2023-03-03T14:14:52.098Z,10.02
2023-03-03T14:15:52.085Z,10.37
2023-03-03T14:16:52.184Z,10.55
2023-03-03T14:18:52.057Z,10.04
2023-03-03T14:21:52.023Z,10.22
2023-03-03T14:23:52.011Z,10.09
2023-03-03T14:24:52.008Z,10.19
2023-03-03T14:26:51.970Z,10.46
2023-03-03T14:27:51.961Z,10.67
2023-03-03T14:29:51.930Z,10.33
2023-03-03T14:34:52.053Z,9.80
2023-03-03T14:36:51.856Z,9.06
2023-03-03T14:37:51.871Z,9.21
2023-03-03T14:38:52.037Z,9.84
2023-03-03T14:39:51.857Z,10.05
2023-03-03T14:40:51.832Z,10.19
2023-03-03T14:41:52.834Z,9.61
2023-03-03T14:42:51.788Z,9.55
2023-03-03T14:43:51.781Z,9.50
2023-03-03T14:44:51.886Z,9.71
2023-03-03T14:47:51.736Z,9.65
2023-03-03T14:48:51.738Z,10.22
2023-03-03T14:49:51.720Z,10.09
2023-03-03T14:50:51.702Z,10.50
2023-03-03T14:52:51.696Z,11.25
2023-03-03T14:53:51.671Z,11.45
2023-03-03T14:55:51.690Z,11.50
2023-03-03T14:56:51.703Z,11.23
2023-03-03T14:57:51.667Z,10.91
2023-03-03T14:58:51.658Z,10.71
2023-03-03T14:59:51.645Z,10.35
2023-03-03T15:00:51.640Z,10.04
2023-03-03T15:02:51.612Z,10.58
2023-03-03T15:03:51.602Z,10.71
2023-03-03T15:04:51.626Z,10.60
2023-03-03T15:05:51.581Z,10.93
2023-03-03T15:06:51.573Z,10.75
2023-03-03T15:07:51.594Z,10.98
2023-03-03T15:08:51.550Z,11.30
2023-03-03T15:10:51.531Z,11.99
2023-03-03T15:11:51.522Z,12.39
2023-03-03T15:12:51.529Z,12.44
2023-03-03T15:13:51.498Z,11.70
2023-03-03T15:14:51.487Z,11.01
2023-03-03T15:15:51.522Z,11.09
2023-03-03T15:16:51.461Z,11.07
2023-03-03T15:17:51.456Z,11.27
2023-03-03T15:19:51.431Z,11.07
2023-03-03T15:20:51.419Z,10.93
2023-03-03T15:21:51.421Z,10.75
2023-03-03T15:22:51.393Z,10.68
2023-03-03T15:23:51.387Z,10.95
2023-03-03T15:24:51.383Z,11.43
2023-03-03T15:25:54.352Z,11.73
2023-03-03T15:26:51.396Z,11.80
2023-03-03T15:27:51.399Z,11.62
2023-03-03T15:28:51.351Z,11.75
2023-03-03T15:29:51.322Z,11.91
2023-03-03T15:30:51.331Z,11.72
2023-03-03T15:31:51.315Z,11.93
2023-03-03T15:32:51.442Z,11.94
2023-03-03T15:39:51.209Z,9.83
2023-03-03T15:40:51.253Z,10.05
2023-03-03T15:42:51.186Z,9.97
2023-03-03T15:44:51.336Z,10.30
2023-03-03T15:45:51.142Z,10.37
2023-03-03T15:46:51.195Z,10.09
2023-03-03T15:47:51.140Z,9.98
2023-03-03T15:48:51.118Z,10.12
2023-03-03T15:49:51.201Z,10.23
2023-03-03T15:52:02.822Z,9.60
2023-03-03T15:52:51.069Z,9.42
2023-03-03T15:53:51.055Z,9.39
2023-03-03T15:54:51.046Z,9.46
2023-03-03T15:55:51.086Z,9.50
2023-03-03T15:56:51.076Z,9.64
2023-03-03T15:58:51.000Z,10.02
2023-03-03T15:59:50.956Z,9.71
2023-03-03T16:00:50.939Z,9.46
2023-03-03T16:03:50.876Z,9.36
2023-03-03T16:04:50.870Z,9.30
2023-03-03T16:05:50.852Z,9.36
2023-03-03T16:06:50.846Z,9.40
2023-03-03T16:08:50.842Z,9.36
2023-03-03T16:09:50.807Z,9.30
2023-03-03T16:13:50.764Z,9.43
2023-03-03T16:14:50.804Z,9.36
2023-03-03T16:17:44.169Z,9.04
2023-03-03T16:18:44.096Z,9.03
2023-03-03T16:20:44.073Z,8.99
2023-03-03T16:21:44.065Z,9.03
2023-03-03T16:22:44.057Z,8.91
2023-03-03T16:23:44.045Z,9.09
2023-03-03T16:24:44.029Z,8.92
2023-03-03T16:28:17.885Z,9.02
2023-03-03T16:29:17.871Z,8.94
2023-03-03T16:30:17.864Z,9.18
2023-03-03T16:31:17.888Z,9.31
2023-03-03T16:34:17.830Z,9.24
2023-03-03T16:35:17.976Z,9.06
2023-03-03T16:36:17.828Z,9.21
2023-03-03T16:37:17.787Z,9.02
2023-03-03T16:38:17.774Z,8.81
2023-03-03T16:39:17.765Z,8.79
2023-03-03T16:40:17.764Z,8.69
2023-03-03T16:41:17.743Z,8.78
2023-03-03T16:42:17.731Z,8.97
2023-03-03T16:43:17.725Z,8.92
2023-03-03T16:44:17.710Z,8.91
2023-03-03T16:45:17.725Z,8.82
2023-03-03T16:46:17.689Z,8.82
2023-03-03T16:47:17.689Z,8.66
2023-03-03T16:48:17.672Z,8.66
2023-03-03T16:49:17.679Z,8.71
2023-03-03T16:50:17.647Z,8.82
2023-03-03T16:51:17.639Z,8.74
2023-03-03T16:52:17.628Z,8.63
2023-03-03T16:54:17.606Z,8.53
2023-03-03T17:01:17.657Z,8.27
2023-03-03T17:02:17.528Z,8.30
2023-03-03T17:03:17.533Z,8.33
2023-03-03T17:05:17.505Z,8.00
2023-03-03T17:06:17.472Z,7.99
2023-03-03T17:07:17.463Z,7.87
2023-03-03T17:08:17.456Z,7.74
2023-03-03T17:09:30.308Z,7.72
2023-03-03T17:10:18.457Z,7.72
2023-03-03T17:11:17.423Z,7.69
2023-03-03T17:12:17.405Z,7.60
2023-03-03T17:13:17.398Z,7.51
2023-03-03T17:14:17.424Z,7.38
2023-03-03T17:15:17.378Z,7.29
2023-03-03T17:16:17.391Z,7.18
2023-03-03T17:18:17.339Z,6.91
2023-03-03T17:19:17.332Z,6.74
2023-03-03T17:20:17.322Z,6.63
2023-03-03T17:21:17.331Z,6.50
2023-03-03T17:22:17.296Z,6.45
2023-03-03T17:23:17.286Z,6.37
2023-03-03T17:24:17.273Z,6.26
2023-03-03T17:25:17.267Z,6.22
2023-03-03T17:26:17.256Z,6.14
2023-03-03T17:27:17.242Z,6.01
2023-03-03T17:28:17.233Z,5.90
2023-03-03T17:29:17.226Z,5.84
2023-03-03T17:30:17.207Z,5.79
2023-03-03T17:32:17.201Z,5.64
2023-03-03T17:33:17.181Z,5.61
2023-03-03T17:34:17.177Z,5.50
2023-03-03T17:35:17.172Z,5.47
2023-03-03T17:36:18.404Z,5.32
2023-03-03T17:37:17.163Z,5.22
2023-03-03T17:43:17.076Z,5.13
2023-03-03T17:44:17.064Z,5.17
2023-03-03T17:45:17.052Z,5.13
2023-03-03T17:46:17.097Z,5.14
2023-03-03T17:47:17.033Z,5.14
2023-03-03T17:49:17.010Z,5.19
2023-03-03T17:50:16.999Z,5.24
2023-03-03T17:51:16.999Z,5.31
2023-03-03T17:52:16.978Z,5.31
2023-03-03T17:53:16.995Z,5.32
2023-03-03T17:54:19.105Z,5.37
2023-03-03T17:55:16.954Z,5.34
2023-03-03T17:56:16.939Z,5.34
2023-03-03T17:57:16.928Z,5.32
2023-03-03T18:00:19.203Z,5.53
2023-03-03T18:01:16.889Z,5.61
2023-03-03T18:03:16.926Z,5.83
2023-03-03T18:04:16.883Z,5.90
2023-03-03T18:05:16.849Z,5.90
2023-03-03T18:06:16.835Z,5.82
2023-03-03T18:07:16.825Z,5.84
2023-03-03T18:08:16.811Z,5.97
2023-03-03T18:12:16.768Z,6.23
2023-03-03T18:13:16.764Z,6.27
2023-03-03T18:14:16.779Z,6.32
2023-03-03T18:15:16.740Z,6.35
2023-03-03T18:16:19.135Z,6.32
2023-03-03T18:17:16.721Z,6.25
2023-03-03T18:18:16.708Z,6.12
2023-03-03T18:19:16.696Z,6.16
2023-03-03T18:26:16.619Z,6.65
2023-03-03T18:30:16.573Z,6.63
2023-03-03T18:31:16.629Z,6.73
2023-03-03T18:35:16.595Z,6.88
2023-03-03T18:36:16.512Z,6.87
2023-03-03T18:37:16.499Z,6.84
2023-03-03T18:38:16.487Z,6.88
2023-03-03T18:39:16.479Z,6.92
2023-03-03T18:40:16.467Z,6.96
2023-03-03T18:41:16.475Z,6.86
2023-03-03T18:42:16.444Z,6.81
2023-03-03T18:43:16.439Z,6.81
2023-03-03T18:44:16.426Z,6.73
2023-03-03T18:45:16.413Z,6.58
2023-03-03T18:46:16.605Z,6.37
2023-03-03T18:47:16.388Z,6.41
2023-03-03T18:48:16.376Z,6.30
2023-03-03T18:49:16.366Z,6.23
2023-03-03T18:50:16.355Z,6.50
2023-03-03T18:51:16.349Z,6.84
2023-03-03T18:54:16.313Z,7.33
2023-03-03T18:56:16.292Z,7.36
2023-03-03T18:59:16.260Z,7.45
2023-03-03T19:00:16.249Z,7.45
2023-03-03T19:01:16.263Z,7.47
2023-03-03T19:02:16.230Z,7.45
2023-03-03T19:03:16.212Z,7.43
2023-03-03T19:05:16.238Z,7.38
2023-03-03T19:06:16.182Z,7.40
2023-03-03T19:11:16.128Z,7.31
2023-03-03T19:12:16.115Z,7.36
2023-03-03T19:14:16.092Z,7.43
2023-03-03T19:15:16.082Z,7.38
2023-03-03T19:16:16.090Z,7.36
2023-03-03T19:17:16.064Z,7.38
2023-03-03T19:18:16.052Z,7.20
2023-03-03T19:19:16.043Z,7.18
2023-03-03T19:20:16.027Z,7.29
2023-03-03T19:23:15.995Z,7.15
2023-03-03T19:24:15.982Z,7.03
2023-03-03T19:25:15.986Z,7.18
2023-03-03T19:26:15.961Z,7.23
2023-03-03T19:27:15.952Z,7.23
2023-03-03T19:28:15.951Z,7.25
2023-03-03T19:29:15.961Z,7.25
2023-03-03T19:30:15.918Z,7.29
2023-03-03T19:31:15.941Z,7.35
2023-03-03T19:32:15.950Z,7.39
2023-03-03T19:33:15.888Z,7.33
2023-03-03T19:34:15.879Z,7.33
2023-03-03T19:35:15.867Z,7.29
2023-03-03T19:36:15.864Z,7.33
2023-03-03T19:37:15.845Z,7.31
2023-03-03T19:40:15.814Z,7.39
2023-03-03T19:41:15.803Z,7.40
2023-03-03T19:42:15.792Z,7.40
2023-03-03T19:43:15.791Z,7.39
2023-03-03T19:44:15.772Z,7.35
2023-03-03T19:47:15.738Z,7.33
2023-03-03T19:48:15.729Z,7.36
2023-03-03T19:49:15.718Z,7.39
2023-03-03T19:54:15.663Z,7.29
2023-03-03T19:55:15.662Z,7.33
2023-03-03T19:56:15.641Z,7.39
2023-03-03T19:58:15.641Z,7.29
2023-03-03T19:59:15.610Z,7.32
2023-03-03T20:00:15.600Z,7.36
2023-03-03T20:01:15.609Z,7.36
2023-03-03T20:05:15.548Z,7.47
2023-03-03T20:06:17.163Z,7.40
2023-03-03T20:07:15.525Z,7.42
2023-03-03T20:08:15.512Z,7.38
2023-03-03T20:09:15.502Z,7.39
2023-03-03T20:12:15.474Z,7.21
2023-03-03T20:13:15.458Z,7.25
2023-03-03T20:14:15.446Z,7.33
2023-03-03T20:16:15.558Z,7.33
2023-03-03T20:19:15.394Z,7.21
2023-03-03T20:20:15.382Z,7.32
2023-03-03T20:21:15.388Z,7.35
2023-03-03T20:22:15.363Z,7.39
2023-03-03T20:23:15.353Z,7.35
2023-03-03T20:24:15.339Z,7.39
2023-03-03T20:26:15.317Z,7.31
2023-03-03T20:27:15.321Z,7.28
2023-03-03T20:28:17.450Z,6.99
2023-03-03T20:29:15.289Z,7.15
2023-03-03T20:30:15.285Z,7.20
2023-03-03T20:31:15.326Z,7.31
2023-03-03T20:32:15.364Z,7.31
2023-03-03T20:33:15.276Z,7.23
2023-03-03T20:34:15.238Z,7.35
2023-03-03T20:35:15.230Z,7.40
2023-03-03T20:36:15.214Z,7.36
2023-03-03T20:37:15.270Z,7.42
2023-03-03T20:38:15.186Z,7.54
2023-03-03T20:39:15.181Z,7.51
2023-03-03T20:40:15.173Z,7.65
2023-03-03T20:42:15.148Z,7.60
2023-03-03T20:43:15.141Z,7.71
2023-03-03T20:44:15.122Z,7.61
2023-03-03T20:45:15.113Z,7.58
2023-03-03T20:46:15.162Z,7.76
2023-03-03T20:47:15.098Z,7.87
2023-03-03T20:48:15.082Z,7.96
2023-03-03T20:49:15.103Z,7.87
2023-03-03T20:50:15.070Z,7.96
2023-03-03T20:51:15.051Z,7.96
2023-03-03T20:52:15.040Z,7.86
2023-03-03T20:53:15.031Z,7.86
2023-03-03T20:59:14.976Z,7.84
2023-03-03T21:00:14.957Z,7.81
2023-03-03T21:02:14.937Z,7.97
2023-03-03T21:06:14.902Z,8.35
2023-03-03T21:07:14.888Z,8.27
2023-03-03T21:13:14.815Z,8.08
2023-03-03T21:14:14.810Z,8.11
2023-03-03T21:15:14.795Z,7.84
2023-03-03T21:18:14.765Z,8.12
2023-03-03T21:19:14.751Z,8.14
2023-03-03T21:20:14.739Z,8.17
2023-03-03T21:21:14.746Z,8.18
2023-03-03T21:22:14.716Z,8.17
2023-03-03T21:23:14.703Z,8.08
2023-03-03T21:24:14.694Z,8.07
2023-03-03T21:26:14.671Z,8.07
2023-03-03T21:27:14.660Z,7.99
2023-03-03T21:28:14.658Z,8.14
2023-03-03T21:29:14.637Z,8.27
2023-03-03T21:31:14.620Z,8.19
2023-03-03T21:32:14.717Z,8.23
2023-03-03T21:34:14.582Z,7.99
2023-03-03T21:35:14.571Z,7.90
2023-03-03T21:36:14.561Z,8.09
2023-03-03T21:37:14.570Z,8.15
2023-03-03T21:38:14.541Z,8.05
2023-03-03T21:40:14.516Z,8.17
2023-03-03T21:41:14.509Z,8.12
2023-03-03T21:42:14.526Z,8.19
2023-03-03T21:43:14.490Z,8.22
2023-03-03T21:44:14.475Z,8.30
2023-03-03T21:45:14.462Z,8.33
2023-03-03T21:46:14.502Z,8.02
2023-03-03T21:47:14.439Z,8.08
2023-03-03T21:48:14.429Z,8.12
2023-03-03T21:50:14.406Z,8.25
2023-03-03T21:51:14.396Z,8.26
2023-03-03T21:52:14.391Z,8.15
2023-03-03T21:58:14.323Z,8.29
2023-03-03T21:59:14.314Z,8.17
2023-03-03T22:00:14.309Z,8.18
2023-03-03T22:01:14.341Z,7.79
2023-03-03T22:02:14.279Z,7.89
2023-03-03T22:03:14.278Z,7.78
2023-03-03T22:04:14.256Z,7.90
2023-03-03T22:05:14.246Z,7.93
2023-03-03T22:06:14.238Z,7.97
2023-03-03T22:07:14.243Z,7.84
2023-03-03T22:08:14.213Z,7.92
2023-03-03T22:09:14.223Z,7.89
2023-03-03T22:10:14.194Z,7.89
2023-03-03T22:11:15.627Z,7.71
2023-03-03T22:12:14.171Z,7.74
2023-03-03T22:14:14.151Z,7.72
2023-03-03T22:15:14.141Z,7.82
2023-03-03T22:16:14.205Z,7.92
2023-03-03T22:17:14.114Z,8.09
2023-03-03T22:18:14.104Z,8.07
2023-03-03T22:20:14.089Z,7.75
2023-03-03T22:21:14.073Z,7.71
2023-03-03T22:22:14.062Z,7.58
2023-03-03T22:23:14.048Z,7.75
2023-03-03T22:24:14.051Z,7.63
2023-03-03T22:25:14.067Z,7.75
2023-03-03T22:26:14.020Z,7.61
2023-03-03T22:27:14.010Z,7.61
2023-03-03T22:31:13.990Z,7.68
2023-03-03T22:33:13.947Z,7.86
2023-03-03T22:34:13.939Z,7.78
2023-03-03T22:35:13.931Z,7.69
2023-03-03T22:36:13.913Z,7.79
2023-03-03T22:37:13.915Z,7.79
2023-03-03T22:38:13.892Z,7.76
2023-03-03T22:49:13.815Z,7.76
2023-03-03T22:53:13.731Z,7.72
2023-03-03T22:58:13.679Z,7.78
2023-03-03T23:02:13.650Z,7.72
2023-03-03T23:03:13.669Z,7.69
2023-03-03T23:04:13.618Z,7.78
2023-03-03T23:05:13.665Z,7.79
2023-03-03T23:06:13.591Z,7.89
2023-03-03T23:07:13.574Z,7.68
2023-03-03T23:08:13.566Z,7.61
2023-03-03T23:09:13.587Z,7.75
2023-03-03T23:10:13.540Z,7.75
2023-03-03T23:11:13.531Z,7.78
2023-03-03T23:12:13.522Z,7.71
2023-03-03T23:13:13.529Z,7.79
2023-03-03T23:16:13.498Z,8.12
2023-03-03T23:17:13.462Z,8.23
2023-03-03T23:19:13.442Z,7.92
2023-03-03T23:26:13.365Z,8.04
2023-03-03T23:27:13.357Z,7.97
2023-03-03T23:29:13.358Z,7.93
2023-03-03T23:31:13.365Z,7.92
2023-03-03T23:32:13.355Z,7.97
2023-03-03T23:35:13.265Z,8.08
2023-03-03T23:37:13.243Z,7.99
2023-03-03T23:38:13.234Z,7.89
2023-03-03T23:39:13.224Z,7.78
2023-03-03T23:40:13.213Z,7.96
2023-03-03T23:41:13.200Z,7.92
2023-03-03T23:42:13.199Z,7.92
2023-03-03T23:46:13.175Z,8.18
2023-03-03T23:47:13.139Z,8.23
2023-03-03T23:50:13.113Z,8.15
2023-03-03T23:51:13.111Z,8.08
2023-03-03T23:52:13.087Z,7.94
2023-03-03T23:53:13.071Z,7.90
2023-03-03T23:54:13.060Z,7.90
2023-03-03T23:55:13.051Z,8.00
2023-03-03T23:57:13.030Z,8.05
2023-03-03T23:58:13.018Z,8.11
2023-03-03T23:59:13.005Z,8.12
